FGSPB LFLV-LFLC
Flight info
| Callsign | FGSPB |
|---|---|
| Flight time | 0h 17m |
| Altitude | 8000 |
| Route | DCT |
| Aircraft | C172/L-SFG/C |
Departure
| Time | 2026-04-22 16:23 |
|---|---|
| Airport | Vichy-Charmeil Airport (LFLV) |
Arrival
| Time | 2026-04-22 16:41 |
|---|---|
| Airport | Clermont-Ferrand Auvergne airport (LFLC) |
| Time | Latitude | Longitude | Altitude | Speed | Heading |
|---|---|---|---|---|---|
| 2026-04-22 16:14 | 46.16562 | 3.39971 | 821 ft | 0 kts | 280° |
| 2026-04-22 16:19 | 46.16550 | 3.39960 | 822 ft | 7 kts | 169° |
| 2026-04-22 16:20 | 46.16495 | 3.40003 | 820 ft | 11 kts | 146° |
| 2026-04-22 16:20 | 46.16439 | 3.40016 | 821 ft | 7 kts | 183° |
| 2026-04-22 16:20 | 46.16407 | 3.40016 | 821 ft | 3 kts | 163° |
| 2026-04-22 16:20 | 46.16387 | 3.40074 | 821 ft | 10 kts | 102° |
| 2026-04-22 16:21 | 46.16381 | 3.40104 | 821 ft | 0 kts | 108° |
| 2026-04-22 16:22 | 46.16376 | 3.40167 | 820 ft | 14 kts | 95° |
| 2026-04-22 16:22 | 46.16405 | 3.40244 | 817 ft | 7 kts | 8° |
| 2026-04-22 16:22 | 46.16499 | 3.40264 | 818 ft | 34 kts | 7° |
| 2026-04-22 16:23 | 46.17350 | 3.40453 | 997 ft | 76 kts | 17° |
| 2026-04-22 16:23 | 46.17882 | 3.40580 | 1245 ft | 80 kts | 17° |
| 2026-04-22 16:23 | 46.18438 | 3.40728 | 1557 ft | 81 kts | 18° |
| 2026-04-22 16:24 | 46.19007 | 3.40745 | 1861 ft | 92 kts | 341° |
| 2026-04-22 16:24 | 46.19104 | 3.38815 | 2228 ft | 113 kts | 236° |
| 2026-04-22 16:24 | 46.18563 | 3.38001 | 2364 ft | 115 kts | 215° |
| 2026-04-22 16:25 | 46.17871 | 3.37411 | 2432 ft | 116 kts | 201° |
| 2026-04-22 16:25 | 46.16387 | 3.36350 | 2604 ft | 122 kts | 199° |
| 2026-04-22 16:25 | 46.15632 | 3.35758 | 2615 ft | 124 kts | 204° |
| 2026-04-22 16:26 | 46.14870 | 3.35168 | 2607 ft | 125 kts | 204° |
| 2026-04-22 16:26 | 46.14100 | 3.34566 | 2612 ft | 127 kts | 204° |
| 2026-04-22 16:26 | 46.13334 | 3.33941 | 2614 ft | 125 kts | 204° |
| 2026-04-22 16:26 | 46.12579 | 3.33337 | 2613 ft | 124 kts | 204° |
| 2026-04-22 16:27 | 46.11805 | 3.32726 | 2616 ft | 129 kts | 205° |
| 2026-04-22 16:27 | 46.11027 | 3.32123 | 2610 ft | 125 kts | 205° |
| 2026-04-22 16:27 | 46.10265 | 3.31564 | 2607 ft | 122 kts | 204° |
| 2026-04-22 16:27 | 46.09516 | 3.31027 | 2598 ft | 120 kts | 203° |
| 2026-04-22 16:28 | 46.08779 | 3.30456 | 2612 ft | 122 kts | 204° |
| 2026-04-22 16:28 | 46.08008 | 3.29918 | 2613 ft | 122 kts | 187° |
| 2026-04-22 16:28 | 46.07185 | 3.29962 | 2601 ft | 117 kts | 167° |
| 2026-04-22 16:28 | 46.06377 | 3.30129 | 2602 ft | 117 kts | 165° |
| 2026-04-22 16:29 | 46.05575 | 3.30275 | 2608 ft | 117 kts | 167° |
| 2026-04-22 16:29 | 46.04764 | 3.30427 | 2607 ft | 118 kts | 166° |
| 2026-04-22 16:29 | 46.03964 | 3.30655 | 2606 ft | 117 kts | 158° |
| 2026-04-22 16:29 | 46.03191 | 3.31048 | 2612 ft | 118 kts | 156° |
| 2026-04-22 16:30 | 46.02688 | 3.31334 | 2609 ft | 117 kts | 154° |
| 2026-04-22 16:30 | 46.01669 | 3.31887 | 2616 ft | 118 kts | 155° |
| 2026-04-22 16:30 | 46.00896 | 3.32295 | 2617 ft | 118 kts | 154° |
| 2026-04-22 16:30 | 46.00086 | 3.32497 | 2606 ft | 126 kts | 193° |
| 2026-04-22 16:31 | 45.99374 | 3.31796 | 2620 ft | 128 kts | 241° |
| 2026-04-22 16:31 | 45.99155 | 3.30571 | 2628 ft | 128 kts | 258° |
| 2026-04-22 16:31 | 45.98787 | 3.29405 | 2591 ft | 130 kts | 234° |
| 2026-04-22 16:31 | 45.98270 | 3.28376 | 2534 ft | 128 kts | 231° |
| 2026-04-22 16:32 | 45.97717 | 3.27394 | 2556 ft | 125 kts | 228° |
| 2026-04-22 16:32 | 45.97174 | 3.26426 | 2539 ft | 125 kts | 231° |
| 2026-04-22 16:32 | 45.96625 | 3.25463 | 2572 ft | 124 kts | 222° |
| 2026-04-22 16:32 | 45.95952 | 3.24689 | 2573 ft | 124 kts | 210° |
| 2026-04-22 16:33 | 45.95217 | 3.24035 | 2627 ft | 123 kts | 206° |
| 2026-04-22 16:33 | 45.94476 | 3.23399 | 2575 ft | 126 kts | 208° |
| 2026-04-22 16:33 | 45.93733 | 3.22708 | 2508 ft | 129 kts | 215° |
| 2026-04-22 16:33 | 45.93039 | 3.21839 | 2391 ft | 135 kts | 220° |
| 2026-04-22 16:34 | 45.92252 | 3.21255 | 2477 ft | 124 kts | 191° |
| 2026-04-22 16:34 | 45.91395 | 3.21056 | 2412 ft | 126 kts | 186° |
| 2026-04-22 16:34 | 45.90591 | 3.20591 | 2435 ft | 123 kts | 211° |
| 2026-04-22 16:34 | 45.89881 | 3.19935 | 2475 ft | 121 kts | 210° |
| 2026-04-22 16:35 | 45.89150 | 3.19308 | 2444 ft | 122 kts | 207° |
| 2026-04-22 16:35 | 45.88409 | 3.18715 | 2452 ft | 122 kts | 207° |
| 2026-04-22 16:35 | 45.87682 | 3.18080 | 2483 ft | 122 kts | 208° |
| 2026-04-22 16:35 | 45.86946 | 3.17498 | 2494 ft | 121 kts | 207° |
| 2026-04-22 16:36 | 45.86232 | 3.16872 | 2538 ft | 118 kts | 208° |
| 2026-04-22 16:36 | 45.85497 | 3.16329 | 2540 ft | 120 kts | 200° |
| 2026-04-22 16:36 | 45.84716 | 3.15934 | 2576 ft | 119 kts | 192° |
| 2026-04-22 16:36 | 45.83894 | 3.15822 | 2593 ft | 120 kts | 178° |
| 2026-04-22 16:37 | 45.83335 | 3.15811 | 2596 ft | 122 kts | 178° |
| 2026-04-22 16:37 | 45.82471 | 3.15821 | 2583 ft | 125 kts | 176° |
| 2026-04-22 16:37 | 45.81335 | 3.15966 | 2422 ft | 122 kts | 158° |
| 2026-04-22 16:37 | 45.80795 | 3.16774 | 2248 ft | 113 kts | 101° |
| 2026-04-22 16:38 | 45.80791 | 3.17853 | 2124 ft | 107 kts | 79° |
| 2026-04-22 16:38 | 45.80887 | 3.18548 | 2099 ft | 103 kts | 76° |
| 2026-04-22 16:38 | 45.81013 | 3.19549 | 2121 ft | 100 kts | 81° |
| 2026-04-22 16:38 | 45.81055 | 3.20530 | 2099 ft | 100 kts | 88° |
| 2026-04-22 16:39 | 45.80878 | 3.21516 | 2001 ft | 108 kts | 124° |
| 2026-04-22 16:39 | 45.80236 | 3.22060 | 1866 ft | 106 kts | 166° |
| 2026-04-22 16:39 | 45.79573 | 3.22146 | 1747 ft | 90 kts | 187° |
| 2026-04-22 16:39 | 45.79102 | 3.21744 | 1602 ft | 76 kts | 255° |
| 2026-04-22 16:40 | 45.79048 | 3.21008 | 1461 ft | 70 kts | 264° |
| 2026-04-22 16:40 | 45.78991 | 3.20386 | 1342 ft | 62 kts | 263° |
| 2026-04-22 16:40 | 45.78882 | 3.19149 | 1162 ft | 62 kts | 262° |
| 2026-04-22 16:41 | 45.78824 | 3.18549 | 1068 ft | 58 kts | 261° |
| 2026-04-22 16:41 | 45.78779 | 3.18097 | 1062 ft | 35 kts | 262° |
| 2026-04-22 16:41 | 45.78751 | 3.17831 | 1066 ft | 20 kts | 264° |
| 2026-04-22 16:41 | 45.78735 | 3.17673 | 1067 ft | 12 kts | 264° |
| 2026-04-22 16:42 | 45.78726 | 3.17583 | 1068 ft | 6 kts | 258° |
| 2026-04-22 16:42 | 45.78723 | 3.17549 | 1068 ft | 0 kts | 263° |
| 2026-04-22 16:42 | 45.78712 | 3.17431 | 1069 ft | 34 kts | 262° |
| 2026-04-22 16:42 | 45.78660 | 3.16888 | 1102 ft | 68 kts | 262° |
| 2026-04-22 16:43 | 45.78587 | 3.16144 | 1233 ft | 80 kts | 261° |
| 2026-04-22 16:43 | 45.78502 | 3.15322 | 1409 ft | 86 kts | 262° |